Terminal Aerodrome Forecast
Issued by NWS

Current Version | Previous Version | Text Only | Print | Product List | Glossary On
Versions: 1 2 3 4 5 6 7 8 9 10 11 12 13 14 15 16 17 18 19 20
000
FTUS45 KABQ 301700
TAFAEG
TAF
KAEG 301735Z 3018/3118 VRB04KT P6SM FEW070 SCT200
     FM302100 28010KT P6SM SCT080
     FM310230 12014G22KT P6SM VCTS BKN070CB
     FM310500 13012KT P6SM VCSH BKN060
     FM311000 13009KT P6SM BKN060
     FM311500 11005KT P6SM BKN060=

USA.gov is the U.S. government's official web portal to all federal, state and local government web resources and services.